Coconut Island, Australia
Current Conditions -  °F | °C
As of 11:09 AM on Wednesday 28 Jan 2015 (Local Time) from YHID Reporting Station
Broken Clouds Broken Clouds  
Wind Chill: 82°   Ceiling: 1400
Heat Index: 91°   Visibility: 6mi
Dew Point: 77°   Wind: 16mph
Humidity: 84%   Direction: 330°NNW
Pressure: 29.71"   Gusts: NA
Location:  10.05°S, 143.07°E
Report Text: YHID 280109Z AUTO 33014KT 9999 // BKN014 BKN019 BKN023 28/25 Q1006
Loading
Personal Weather Stations






























Interactive Weather Map New forecast layout! Learn more

10-Day Weather Forecast

Advertisements
Track Severe Weather on mobile